createdAt,value
2023-12-11T00:01:33.557Z,24.00
2023-12-11T00:04:00.809Z,23.13
2023-12-11T00:06:27.997Z,20.65
2023-12-11T00:08:55.158Z,24.88
2023-12-11T00:11:22.649Z,32.75
2023-12-11T00:13:49.768Z,19.67
2023-12-11T00:16:17.873Z,24.50
2023-12-11T00:18:45.154Z,29.73
2023-12-11T00:21:12.397Z,26.13
2023-12-11T00:23:39.710Z,24.48
2023-12-11T00:26:06.966Z,17.35
2023-12-11T00:28:34.116Z,19.90
2023-12-11T00:31:02.988Z,18.77
2023-12-11T00:33:30.460Z,14.13
2023-12-11T00:35:57.703Z,18.15
2023-12-11T00:38:24.770Z,26.30
2023-12-11T00:40:51.905Z,15.25
2023-12-11T00:43:20.128Z,15.95
2023-12-11T00:45:47.249Z,20.98
2023-12-11T00:48:14.724Z,20.38
2023-12-11T00:50:41.920Z,18.10
2023-12-11T00:53:08.996Z,16.40
2023-12-11T00:55:36.141Z,20.90
2023-12-11T00:58:03.449Z,16.65
2023-12-11T01:00:31.056Z,21.92
2023-12-11T01:02:58.358Z,18.58
2023-12-11T01:05:25.630Z,20.65
2023-12-11T01:07:52.802Z,20.05
2023-12-11T01:10:19.933Z,22.48
2023-12-11T01:12:47.112Z,21.35
2023-12-11T01:15:14.315Z,19.00
2023-12-11T01:17:41.515Z,26.83
2023-12-11T01:20:09.661Z,28.48
2023-12-11T01:22:37.131Z,15.77
2023-12-11T01:25:04.719Z,20.70
2023-12-11T01:27:32.532Z,21.67
2023-12-11T01:30:00.088Z,24.20
2023-12-11T01:32:27.264Z,14.13
2023-12-11T01:34:54.467Z,29.15
2023-12-11T01:37:21.637Z,16.73
2023-12-11T01:39:48.787Z,23.60
2023-12-11T01:42:16.061Z,19.25
2023-12-11T01:44:43.382Z,21.85
2023-12-11T01:47:11.034Z,26.50
2023-12-11T01:49:38.552Z,34.28
2023-12-11T01:52:06.486Z,17.98
2023-12-11T01:54:33.753Z,19.85
2023-12-11T01:57:01.015Z,24.35
2023-12-11T01:59:28.382Z,23.40
2023-12-11T02:01:55.687Z,24.10
2023-12-11T02:04:23.117Z,25.55
2023-12-11T02:06:51.870Z,22.13
2023-12-11T02:09:19.106Z,26.63
2023-12-11T02:11:47.516Z,24.33
2023-12-11T02:14:14.772Z,18.63
2023-12-11T02:16:41.937Z,27.10
2023-12-11T02:19:09.206Z,36.47
2023-12-11T02:21:36.696Z,34.72
2023-12-11T02:24:11.568Z,32.72
2023-12-11T02:26:38.699Z,25.85
2023-12-11T02:29:05.831Z,25.05
2023-12-11T02:31:32.940Z,22.63
2023-12-11T02:34:00.239Z,25.90
2023-12-11T02:36:27.405Z,25.08
2023-12-11T02:38:54.626Z,28.05
2023-12-11T02:41:21.735Z,22.50
2023-12-11T02:43:48.886Z,28.30
2023-12-11T02:46:16.086Z,24.70
2023-12-11T02:48:43.434Z,25.48
2023-12-11T02:51:10.709Z,21.17
2023-12-11T02:53:37.930Z,22.83
2023-12-11T02:56:05.297Z,30.88
2023-12-11T02:58:32.346Z,32.20
2023-12-11T03:01:00.703Z,20.73
2023-12-11T03:03:27.996Z,26.10
2023-12-11T03:05:55.171Z,26.23
2023-12-11T03:08:22.314Z,22.40
2023-12-11T03:10:50.554Z,19.35
2023-12-11T03:13:17.858Z,27.80
2023-12-11T03:15:45.058Z,27.23
2023-12-11T03:18:12.563Z,21.67
2023-12-11T03:20:39.728Z,31.20
2023-12-11T03:23:06.860Z,27.45
2023-12-11T03:25:33.944Z,22.77
2023-12-11T03:28:01.046Z,31.15
2023-12-11T03:30:28.185Z,25.58
2023-12-11T03:32:55.274Z,21.65
2023-12-11T03:35:22.396Z,24.73
2023-12-11T03:37:49.515Z,29.65
2023-12-11T03:40:16.696Z,22.92
2023-12-11T03:42:46.246Z,19.08
2023-12-11T03:45:14.304Z,17.17
2023-12-11T03:47:41.589Z,24.48
2023-12-11T03:50:08.993Z,22.50
2023-12-11T03:52:36.257Z,19.25
2023-12-11T03:55:03.565Z,17.30
2023-12-11T03:57:31.011Z,23.45
2023-12-11T03:59:58.285Z,16.65
2023-12-11T04:02:25.514Z,23.63
2023-12-11T04:04:52.829Z,22.88
2023-12-11T04:07:20.014Z,23.92
2023-12-11T04:09:47.155Z,20.38
2023-12-11T04:12:14.280Z,20.63
2023-12-11T04:14:41.341Z,20.77
2023-12-11T04:17:08.391Z,24.83
2023-12-11T04:19:35.576Z,20.52
2023-12-11T04:22:02.779Z,22.77
2023-12-11T04:24:29.857Z,27.30
2023-12-11T04:26:56.968Z,26.50
2023-12-11T04:29:24.154Z,18.17
2023-12-11T04:31:51.236Z,22.88
2023-12-11T04:34:18.453Z,13.48
2023-12-11T04:36:45.678Z,18.88
2023-12-11T04:39:13.777Z,21.08
2023-12-11T04:41:41.201Z,22.63
2023-12-11T04:44:08.313Z,18.67
2023-12-11T04:46:35.478Z,21.85
2023-12-11T04:49:02.676Z,19.30
2023-12-11T04:51:29.920Z,22.30
2023-12-11T04:53:57.038Z,22.45
2023-12-11T04:56:27.758Z,23.38
2023-12-11T04:58:54.936Z,22.75
2023-12-11T05:01:23.289Z,25.05
2023-12-11T05:03:50.530Z,16.42
2023-12-11T05:06:17.671Z,24.80
2023-12-11T05:08:44.797Z,21.73
2023-12-11T05:11:12.503Z,19.55
2023-12-11T05:13:39.579Z,23.20
2023-12-11T05:16:06.858Z,24.95
2023-12-11T05:18:33.989Z,19.42
2023-12-11T05:21:06.680Z,22.70
2023-12-11T05:23:33.820Z,19.15
2023-12-11T05:26:00.935Z,26.50
2023-12-11T05:28:28.122Z,20.88
2023-12-11T05:30:55.557Z,19.63
2023-12-11T05:33:22.795Z,22.02
2023-12-11T05:35:50.017Z,26.60
2023-12-11T05:38:17.179Z,22.30
2023-12-11T05:40:44.596Z,19.55
2023-12-11T05:43:11.774Z,21.98
2023-12-11T05:45:39.028Z,15.82
2023-12-11T05:48:06.699Z,17.70
2023-12-11T05:50:39.078Z,20.38
2023-12-11T05:53:07.709Z,20.40
2023-12-11T05:55:34.876Z,21.95
2023-12-11T05:58:02.056Z,24.27
2023-12-11T06:00:29.238Z,25.63
2023-12-11T06:02:56.352Z,20.80
2023-12-11T06:05:23.632Z,28.67
2023-12-11T06:07:50.718Z,26.42
2023-12-11T06:10:18.156Z,30.75
2023-12-11T06:12:45.359Z,23.65
2023-12-11T06:15:13.149Z,19.77
2023-12-11T06:17:40.466Z,20.77
2023-12-11T06:20:08.679Z,18.45
2023-12-11T06:22:35.783Z,21.33
2023-12-11T06:25:03.440Z,25.45
2023-12-11T06:27:30.958Z,19.55
2023-12-11T06:29:58.254Z,21.90
2023-12-11T06:32:25.548Z,27.05
2023-12-11T06:34:52.733Z,17.08
2023-12-11T06:37:19.956Z,20.77
2023-12-11T06:39:49.592Z,18.23
2023-12-11T06:42:16.906Z,18.70
2023-12-11T06:44:44.071Z,22.33
2023-12-11T06:47:11.329Z,14.32
2023-12-11T06:49:38.772Z,19.45
2023-12-11T06:52:06.613Z,23.83
2023-12-11T06:54:33.841Z,22.58
2023-12-11T06:57:00.996Z,19.70
2023-12-11T06:59:29.995Z,16.75
2023-12-11T07:01:57.341Z,18.40
2023-12-11T07:04:24.718Z,25.30
2023-12-11T07:06:52.450Z,13.32
2023-12-11T07:09:20.261Z,22.00
2023-12-11T07:11:47.367Z,25.77
2023-12-11T07:14:14.481Z,19.30
2023-12-11T07:16:41.663Z,16.48
2023-12-11T07:19:09.607Z,23.23
2023-12-11T07:21:36.985Z,16.30
2023-12-11T07:24:04.250Z,20.15
2023-12-11T07:26:31.459Z,25.73
2023-12-11T07:28:59.230Z,17.77
2023-12-11T07:31:26.424Z,17.08
2023-12-11T07:33:56.779Z,17.15
2023-12-11T07:36:24.373Z,13.27
2023-12-11T07:38:51.495Z,8.73
2023-12-11T07:41:22.115Z,16.42
2023-12-11T07:43:49.234Z,14.95
2023-12-11T07:46:19.868Z,18.25
2023-12-11T07:48:47.386Z,11.35
2023-12-11T07:51:21.340Z,6.90
2023-12-11T07:53:48.785Z,7.70
2023-12-11T07:56:25.432Z,8.50
2023-12-11T07:58:53.153Z,9.90
2023-12-11T08:01:20.870Z,9.90
2023-12-11T08:03:48.252Z,6.32
2023-12-11T08:06:15.619Z,9.02
2023-12-11T08:08:44.865Z,5.75
2023-12-11T08:11:16.973Z,9.30
2023-12-11T08:16:11.842Z,7.90
2023-12-11T08:18:39.222Z,7.30
2023-12-11T08:21:06.699Z,10.80
2023-12-11T08:23:33.915Z,6.95
2023-12-11T08:26:01.025Z,8.07
2023-12-11T08:28:28.136Z,8.18
2023-12-11T08:30:56.046Z,5.88
2023-12-11T08:33:23.194Z,7.75
2023-12-11T08:35:50.306Z,6.30
2023-12-11T08:38:17.961Z,6.28
2023-12-11T08:40:45.733Z,10.18
2023-12-11T08:43:13.923Z,10.23
2023-12-11T08:45:41.475Z,7.78
2023-12-11T08:48:08.826Z,6.15
2023-12-11T08:50:36.828Z,5.97
2023-12-11T08:53:04.840Z,6.53
2023-12-11T08:55:32.230Z,8.57
2023-12-11T08:57:59.459Z,8.85
2023-12-11T09:00:26.667Z,12.75
2023-12-11T09:02:53.788Z,16.75
2023-12-11T09:05:20.979Z,15.32
2023-12-11T09:07:48.260Z,14.50
2023-12-11T09:10:15.472Z,9.30
2023-12-11T09:12:42.854Z,14.85
2023-12-11T09:15:10.661Z,13.23
2023-12-11T09:17:37.948Z,12.68
2023-12-11T09:20:06.913Z,14.52
2023-12-11T09:22:34.167Z,14.48
2023-12-11T09:25:01.322Z,17.95
2023-12-11T09:27:28.636Z,15.73
2023-12-11T09:29:55.893Z,15.43
2023-12-11T09:32:23.705Z,9.35
2023-12-11T09:34:51.039Z,10.98
2023-12-11T09:37:20.570Z,11.65
2023-12-11T09:39:51.137Z,15.43
2023-12-11T09:42:18.670Z,13.25
2023-12-11T09:44:46.468Z,10.15
2023-12-11T09:47:19.478Z,9.98
2023-12-11T09:49:47.617Z,15.75
2023-12-11T09:52:15.281Z,12.23
2023-12-11T09:54:42.947Z,11.60
2023-12-11T09:57:11.642Z,20.45
2023-12-11T09:59:40.191Z,10.85
2023-12-11T10:02:10.254Z,16.92
2023-12-11T10:04:37.388Z,9.05
2023-12-11T10:07:04.699Z,14.75
2023-12-11T10:09:34.470Z,10.48
2023-12-11T10:12:04.019Z,12.35
2023-12-11T10:14:31.723Z,7.95
2023-12-11T10:16:59.502Z,10.07
2023-12-11T10:19:33.775Z,10.00
2023-12-11T10:22:04.831Z,17.55
2023-12-11T10:24:32.282Z,11.77
2023-12-11T10:27:01.566Z,17.00
2023-12-11T10:29:31.634Z,9.00
2023-12-11T10:32:03.117Z,11.30
2023-12-11T10:34:43.627Z,17.17
2023-12-11T10:37:14.662Z,12.93
2023-12-11T10:39:54.630Z,10.75
2023-12-11T10:42:21.850Z,11.88
2023-12-11T10:44:53.693Z,14.00
2023-12-11T10:47:21.872Z,8.75
2023-12-11T10:49:50.754Z,12.02
2023-12-11T10:52:18.452Z,11.20
2023-12-11T10:54:46.793Z,12.07
2023-12-11T10:57:18.530Z,10.13
2023-12-11T10:59:46.336Z,16.55
2023-12-11T11:02:15.219Z,11.25
2023-12-11T11:04:43.986Z,10.82
2023-12-11T11:07:14.058Z,12.77
2023-12-11T11:10:05.471Z,12.38
2023-12-11T11:12:32.630Z,12.70
2023-12-11T11:14:59.799Z,9.52
2023-12-11T11:17:26.918Z,9.50
2023-12-11T11:20:18.539Z,14.73
2023-12-11T11:22:47.059Z,15.07
2023-12-11T11:25:33.387Z,13.45
2023-12-11T11:28:00.799Z,12.05
2023-12-11T11:30:43.575Z,15.75
2023-12-11T11:33:11.084Z,20.30
2023-12-11T11:35:50.240Z,17.05
2023-12-11T11:38:18.410Z,19.05
2023-12-11T11:40:45.894Z,11.65
2023-12-11T11:43:14.320Z,17.80
2023-12-11T11:45:42.416Z,12.63
2023-12-11T11:48:09.797Z,11.88
2023-12-11T11:50:37.004Z,15.65
2023-12-11T11:53:11.572Z,14.32
2023-12-11T11:55:43.012Z,17.00
2023-12-11T11:58:14.278Z,14.25
2023-12-11T12:00:41.808Z,6.65
2023-12-11T12:03:09.981Z,9.40
2023-12-11T12:05:38.031Z,6.78
2023-12-11T12:08:09.290Z,9.38
2023-12-11T12:10:36.703Z,11.88
2023-12-11T12:13:05.295Z,11.85
2023-12-11T12:15:42.977Z,8.10
2023-12-11T12:18:10.486Z,11.98
2023-12-11T12:20:37.704Z,5.07
2023-12-11T12:23:06.729Z,4.63
2023-12-11T12:25:34.733Z,7.50
2023-12-11T12:28:13.264Z,7.20
2023-12-11T12:30:40.673Z,8.10
2023-12-11T12:33:09.720Z,5.40
2023-12-11T12:35:38.077Z,3.97
2023-12-11T12:38:06.857Z,7.70
2023-12-11T12:40:37.286Z,5.20
2023-12-11T12:43:14.570Z,4.80
2023-12-11T12:45:42.514Z,4.55
2023-12-11T12:48:10.193Z,7.85
2023-12-11T12:50:37.907Z,8.30
2023-12-11T12:53:09.440Z,4.45
2023-12-11T12:55:42.985Z,5.18
2023-12-11T12:58:12.122Z,4.88
2023-12-11T13:00:42.184Z,4.85
2023-12-11T13:03:09.613Z,7.38
2023-12-11T13:05:43.619Z,5.03
2023-12-11T13:08:11.172Z,9.18
2023-12-11T13:10:38.560Z,3.50
2023-12-11T13:13:13.019Z,2.72
2023-12-11T13:15:40.889Z,3.38
2023-12-11T13:18:08.102Z,3.72
2023-12-11T13:20:36.285Z,3.35
2023-12-11T13:23:04.769Z,3.65
2023-12-11T13:25:31.979Z,2.42
2023-12-11T13:27:59.115Z,6.75
2023-12-11T13:30:26.230Z,5.65
2023-12-11T13:32:53.949Z,2.17
2023-12-11T13:35:21.217Z,3.60
2023-12-11T13:37:48.411Z,3.08
2023-12-11T13:40:17.478Z,3.08
2023-12-11T13:42:45.514Z,3.50
2023-12-11T13:45:12.965Z,4.60
2023-12-11T13:47:40.116Z,3.70
2023-12-11T13:50:07.915Z,2.78
2023-12-11T13:52:35.133Z,2.38
2023-12-11T13:55:02.463Z,5.15
2023-12-11T13:57:29.920Z,3.83
2023-12-11T13:59:57.276Z,5.18
2023-12-11T14:02:58.479Z,1.85
2023-12-11T14:05:14.464Z,1.95
2023-12-11T14:07:42.076Z,1.75
2023-12-11T14:10:09.995Z,1.50
2023-12-11T14:12:38.524Z,1.77
2023-12-11T14:15:06.193Z,6.72
2023-12-11T14:17:34.622Z,2.75
2023-12-11T14:20:02.067Z,7.32
2023-12-11T14:22:31.299Z,3.53
2023-12-11T14:24:58.426Z,0.88
2023-12-11T14:27:25.659Z,5.65
2023-12-11T14:29:53.425Z,3.08
2023-12-11T14:32:20.496Z,2.83
2023-12-11T14:34:47.881Z,1.33
2023-12-11T14:37:17.361Z,2.35
2023-12-11T14:39:44.981Z,1.73
2023-12-11T14:42:12.737Z,2.28
2023-12-11T14:44:40.633Z,2.92
2023-12-11T14:47:08.337Z,3.20
2023-12-11T14:49:35.953Z,3.15
2023-12-11T14:52:03.529Z,7.18
2023-12-11T14:54:30.789Z,2.33
2023-12-11T14:56:58.001Z,1.85
2023-12-11T14:59:25.244Z,3.63
2023-12-11T15:01:52.586Z,2.58
2023-12-11T15:04:19.867Z,7.88
2023-12-11T15:06:47.390Z,3.92
2023-12-11T15:09:16.387Z,1.48
2023-12-11T15:11:43.873Z,6.28
2023-12-11T15:14:13.146Z,5.25
2023-12-11T15:16:42.275Z,4.22
2023-12-11T15:19:09.947Z,2.28
2023-12-11T15:21:37.381Z,6.10
2023-12-11T15:24:04.827Z,3.15
2023-12-11T15:26:31.912Z,8.35
2023-12-11T15:29:06.985Z,4.88
2023-12-11T15:31:34.543Z,1.35
2023-12-11T15:34:02.119Z,1.90
2023-12-11T15:36:29.395Z,1.33
2023-12-11T15:38:56.613Z,3.28
2023-12-11T15:41:23.828Z,1.65
2023-12-11T15:43:50.907Z,4.15
2023-12-11T15:46:18.218Z,2.65
2023-12-11T15:48:47.291Z,4.00
2023-12-11T15:51:16.550Z,4.10
2023-12-11T15:53:45.266Z,4.57
2023-12-11T15:56:13.908Z,4.97
2023-12-11T15:58:41.304Z,5.43
2023-12-11T16:01:10.943Z,2.40
2023-12-11T16:03:41.226Z,3.95
2023-12-11T16:06:09.008Z,5.65
2023-12-11T16:08:37.154Z,4.03
2023-12-11T16:11:04.256Z,5.07
2023-12-11T16:13:31.681Z,4.13
2023-12-11T16:15:59.475Z,4.45
2023-12-11T16:18:26.816Z,2.33
2023-12-11T16:20:54.497Z,3.72
2023-12-11T16:23:21.778Z,3.15
2023-12-11T16:25:56.357Z,4.75
2023-12-11T16:28:30.023Z,3.28
2023-12-11T16:30:57.482Z,2.40
2023-12-11T16:33:25.256Z,3.17
2023-12-11T16:35:52.459Z,4.00
2023-12-11T16:38:19.650Z,5.35
2023-12-11T16:40:46.803Z,5.65
2023-12-11T16:43:13.934Z,5.70
2023-12-11T16:45:44.240Z,5.03
2023-12-11T16:48:11.658Z,2.20
2023-12-11T16:50:39.671Z,4.25
2023-12-11T16:53:07.721Z,4.05
2023-12-11T16:55:34.946Z,5.47
2023-12-11T16:58:02.310Z,7.50
2023-12-11T17:00:29.443Z,4.03
2023-12-11T17:02:56.646Z,8.82
2023-12-11T17:05:23.954Z,5.00
2023-12-11T17:07:52.033Z,4.40
2023-12-11T17:10:19.262Z,7.30
2023-12-11T17:12:47.052Z,5.70
2023-12-11T17:15:14.275Z,5.35
2023-12-11T17:17:41.531Z,3.20
2023-12-11T17:20:09.106Z,5.43
2023-12-11T17:22:36.320Z,9.75
2023-12-11T17:25:04.772Z,2.53
2023-12-11T17:27:32.577Z,2.75
2023-12-11T17:30:01.330Z,2.60
2023-12-11T17:32:30.785Z,6.57
2023-12-11T17:34:58.276Z,5.15
2023-12-11T17:37:25.811Z,4.95
2023-12-11T17:39:54.590Z,3.67
2023-12-11T17:42:21.921Z,5.53
2023-12-11T17:44:49.042Z,3.25
2023-12-11T17:47:16.243Z,6.93
2023-12-11T17:49:44.018Z,6.80
2023-12-11T17:52:12.015Z,4.03
2023-12-11T17:54:39.388Z,6.75
2023-12-11T17:57:07.668Z,6.00
2023-12-11T17:59:34.842Z,3.50
2023-12-11T18:02:01.979Z,2.63
2023-12-11T18:04:29.220Z,3.45
2023-12-11T18:06:56.449Z,6.13
2023-12-11T18:09:23.587Z,4.60
2023-12-11T18:11:50.720Z,2.67
2023-12-11T18:14:17.882Z,4.35
2023-12-11T18:16:44.986Z,2.67
2023-12-11T18:19:12.244Z,4.57
2023-12-11T18:21:41.540Z,10.45
2023-12-11T18:24:08.696Z,4.07
2023-12-11T18:26:35.937Z,4.85
2023-12-11T18:29:03.157Z,10.32
2023-12-11T18:31:30.381Z,2.47
2023-12-11T18:33:57.822Z,7.70
2023-12-11T18:36:25.693Z,4.50
2023-12-11T18:38:52.850Z,5.72
2023-12-11T18:41:24.065Z,5.40
2023-12-11T18:43:51.581Z,5.30
2023-12-11T18:46:22.601Z,7.43
2023-12-11T18:48:49.993Z,8.53
2023-12-11T18:51:31.050Z,5.10
2023-12-11T18:53:58.692Z,2.42
2023-12-11T18:56:26.341Z,6.28
2023-12-11T18:58:54.149Z,5.38
2023-12-11T19:01:21.815Z,4.50
2023-12-11T19:03:49.206Z,4.88
2023-12-11T19:06:16.465Z,6.32
2023-12-11T19:08:43.596Z,3.47
2023-12-11T19:11:13.054Z,8.40
2023-12-11T19:13:40.305Z,6.72
2023-12-11T19:16:10.902Z,6.35
2023-12-11T19:18:38.206Z,6.60
2023-12-11T19:21:05.632Z,5.70
2023-12-11T19:23:32.933Z,4.95
2023-12-11T19:26:00.087Z,6.82
2023-12-11T19:28:27.393Z,9.15
2023-12-11T19:30:54.812Z,7.63
2023-12-11T19:33:22.224Z,7.68
2023-12-11T19:35:50.687Z,4.78
2023-12-11T19:38:17.969Z,7.32
2023-12-11T19:40:45.080Z,8.95
2023-12-11T19:43:13.440Z,17.75
2023-12-11T19:45:40.659Z,20.83
2023-12-11T19:48:07.919Z,21.63
2023-12-11T19:50:35.035Z,21.23
2023-12-11T19:53:02.163Z,23.70
2023-12-11T19:55:29.477Z,24.58
2023-12-11T19:57:56.743Z,20.60
2023-12-11T20:00:23.912Z,14.52
2023-12-11T20:02:52.232Z,13.32
2023-12-11T20:05:19.610Z,13.40
2023-12-11T20:07:46.856Z,11.63
2023-12-11T20:10:13.993Z,13.02
2023-12-11T20:12:41.149Z,7.90
2023-12-11T20:15:11.939Z,8.88
2023-12-11T20:17:40.040Z,5.32
2023-12-11T20:20:08.819Z,13.25
2023-12-11T20:22:36.355Z,9.45
2023-12-11T20:25:04.101Z,5.90
2023-12-11T20:27:31.598Z,7.82
2023-12-11T20:29:59.089Z,9.88
2023-12-11T20:32:26.495Z,6.28
2023-12-11T20:34:54.092Z,8.20
2023-12-11T20:37:21.295Z,10.68
2023-12-11T20:39:48.465Z,8.88
2023-12-11T20:42:18.089Z,4.90
2023-12-11T20:44:45.221Z,7.90
2023-12-11T20:47:12.312Z,6.25
2023-12-11T20:49:39.521Z,6.53
2023-12-11T20:52:06.909Z,6.32
2023-12-11T20:54:34.016Z,7.60
2023-12-11T20:57:01.154Z,6.53
2023-12-11T20:59:28.264Z,7.53
2023-12-11T21:01:55.679Z,5.45
2023-12-11T21:04:22.908Z,7.13
2023-12-11T21:06:50.103Z,5.03
2023-12-11T21:09:18.273Z,7.03
2023-12-11T21:11:45.713Z,5.57
2023-12-11T21:14:12.994Z,7.38
2023-12-11T21:16:40.177Z,5.50
2023-12-11T21:19:07.614Z,10.52
2023-12-11T21:21:36.706Z,8.07
2023-12-11T21:24:03.900Z,5.80
2023-12-11T21:26:31.131Z,4.70
2023-12-11T21:28:59.256Z,7.57
2023-12-11T21:31:27.515Z,3.60
2023-12-11T21:33:55.705Z,5.88
2023-12-11T21:36:23.665Z,3.63
2023-12-11T21:38:51.275Z,6.38
2023-12-11T21:41:18.553Z,12.25
2023-12-11T21:43:46.768Z,8.80
2023-12-11T21:46:14.214Z,11.05
2023-12-11T21:48:43.808Z,8.02
2023-12-11T21:51:11.749Z,7.85
2023-12-11T21:53:38.938Z,3.53
2023-12-11T21:56:06.356Z,9.60
2023-12-11T21:58:33.485Z,10.55
2023-12-11T22:01:00.766Z,7.18
2023-12-11T22:03:28.176Z,10.98
2023-12-11T22:05:55.410Z,11.55
2023-12-11T22:08:22.586Z,13.77
2023-12-11T22:10:49.648Z,13.50
2023-12-11T22:13:16.789Z,10.13
2023-12-11T22:15:44.067Z,10.68
2023-12-11T22:18:11.277Z,13.00
2023-12-11T22:20:38.946Z,10.40
2023-12-11T22:23:06.278Z,10.60
2023-12-11T22:25:35.166Z,8.90
2023-12-11T22:28:03.301Z,9.85
2023-12-11T22:30:30.574Z,9.32
2023-12-11T22:32:57.788Z,12.02
2023-12-11T22:35:24.948Z,8.43
2023-12-11T22:37:52.103Z,8.52
2023-12-11T22:40:19.435Z,10.70
2023-12-11T22:42:48.066Z,11.82
2023-12-11T22:45:17.551Z,13.18
2023-12-11T22:47:44.965Z,5.50
2023-12-11T22:50:12.306Z,6.05
2023-12-11T22:52:39.530Z,5.13
2023-12-11T22:55:06.872Z,10.60
2023-12-11T22:57:34.175Z,13.43
2023-12-11T23:00:01.531Z,8.88
2023-12-11T23:02:28.800Z,7.18
2023-12-11T23:04:58.021Z,5.55
2023-12-11T23:07:25.389Z,10.63
2023-12-11T23:09:52.575Z,9.20
2023-12-11T23:12:19.727Z,8.88
2023-12-11T23:14:46.878Z,4.95
2023-12-11T23:17:14.247Z,12.93
2023-12-11T23:19:42.047Z,3.80
2023-12-11T23:22:09.270Z,11.00
2023-12-11T23:24:36.865Z,6.57
2023-12-11T23:27:04.085Z,4.88
2023-12-11T23:29:31.183Z,7.47
2023-12-11T23:31:58.392Z,4.18
2023-12-11T23:34:25.504Z,12.20
2023-12-11T23:36:52.662Z,9.02
2023-12-11T23:39:20.166Z,9.15
2023-12-11T23:41:47.557Z,5.45
2023-12-11T23:44:14.676Z,9.18
2023-12-11T23:46:41.898Z,6.47
2023-12-11T23:49:09.098Z,7.65
2023-12-11T23:51:36.230Z,6.97
2023-12-11T23:54:03.413Z,6.90
2023-12-11T23:56:30.584Z,6.63
2023-12-11T23:58:57.794Z,7.40
